Time;durP1;ratioP1;P1;durP2;ratioP2;P2;SDS_P1;SDS_P2;PMS_P1;PMS_P2;Temp;Humidity;BMP_temperature;BMP_pressure;BME280_temperature;BME280_humidity;BME280_pressure;Samples;Min_cycle;Max_cycle;Signal;HPM_P1;HPM_P2
2023/01/28 00:01:57;;;;;;;0.40;0.40;;;2.30;1.00;;;;;;5035226;28;20388;-86
2023/01/28 00:04:23;;;;;;;0.25;0.25;;;2.00;1.00;;;;;;5036594;28;20038;-86
2023/01/28 00:06:48;;;;;;;0.07;0.07;;;1.50;99.90;;;;;;5036853;28;20033;-86
2023/01/28 00:09:14;;;;;;;0.28;0.28;;;1.50;99.90;;;;;;5037060;28;20116;-86
2023/01/28 00:11:40;;;;;;;0.50;0.50;;;2.30;99.90;;;;;;5036739;28;20045;-87
2023/01/28 00:14:06;;;;;;;1.03;0.90;;;2.00;99.90;;;;;;5037091;28;20080;-86
2023/01/28 00:16:31;;;;;;;0.00;0.00;;;1.40;99.90;;;;;;5036837;28;20045;-85
2023/01/28 00:18:57;;;;;;;0.32;0.32;;;1.80;1.00;;;;;;5035513;28;20406;-86
2023/01/28 00:21:23;;;;;;;0.03;0.03;;;1.40;8.70;;;;;;5036770;28;20438;-87
2023/01/28 00:23:55;;;;;;;1.17;1.13;;;1.40;1.00;;;;;;5036636;28;20450;-87
2023/01/28 00:26:23;;;;;;;0.60;0.60;;;1.40;99.90;;;;;;5036833;28;20072;-87
2023/01/28 00:28:48;;;;;;;0.40;0.40;;;2.40;1.00;;;;;;5035318;28;20045;-87
2023/01/28 00:31:16;;;;;;;0.10;0.10;;;1.60;99.90;;;;;;5036575;28;20052;-86
2023/01/28 00:33:42;;;;;;;0.10;0.10;;;1.40;99.90;;;;;;5036345;28;20068;-87
2023/01/28 00:36:08;;;;;;;0.20;0.20;;;1.40;99.90;;;;;;5035265;28;20053;-86
2023/01/28 00:38:34;;;;;;;0.30;0.30;;;1.40;94.80;;;;;;5036735;28;20057;-86
2023/01/28 00:41:10;;;;;;;0.05;0.05;;;2.10;1.00;;;;;;5035250;28;20072;-87
2023/01/28 00:43:37;;;;;;;0.05;0.05;;;1.70;99.90;;;;;;5036640;28;20045;-87
2023/01/28 00:46:06;;;;;;;0.10;0.10;;;2.30;1.00;;;;;;5036226;28;20045;-87
2023/01/28 00:48:32;;;;;;;0.15;0.15;;;1.50;99.90;;;;;;5034695;28;20061;-86
2023/01/28 00:50:58;;;;;;;0.00;0.00;;;2.40;1.00;;;;;;5034832;28;20124;-87
2023/01/28 00:53:24;;;;;;;0.10;0.10;;;1.40;99.90;;;;;;5034562;28;20084;-86
2023/01/28 00:55:50;;;;;;;0.30;0.30;;;2.30;1.00;;;;;;5035870;28;20566;-87
2023/01/28 00:58:16;;;;;;;0.00;0.00;;;2.10;99.90;;;;;;5034835;28;20049;-87
2023/01/28 01:00:41;;;;;;;0.63;0.63;;;1.40;99.90;;;;;;5036210;28;20044;-86
2023/01/28 01:03:07;;;;;;;1.35;0.95;;;2.00;99.90;;;;;;5050903;28;20460;-86
2023/01/28 01:05:33;;;;;;;0.33;0.33;;;1.00;99.90;;;;;;5034321;28;20053;-87
2023/01/28 01:07:59;;;;;;;0.30;0.30;;;1.40;99.90;;;;;;5035748;28;20072;-86
2023/01/28 01:10:25;;;;;;;0.30;0.30;;;1.50;99.90;;;;;;5035515;28;20041;-86
2023/01/28 01:12:51;;;;;;;0.20;0.20;;;1.50;99.90;;;;;;5033965;28;20042;-86
2023/01/28 01:15:18;;;;;;;0.10;0.10;;;2.10;96.40;;;;;;5035364;28;20045;-86
2023/01/28 01:17:46;;;;;;;0.57;0.57;;;2.20;99.90;;;;;;5035041;28;20053;-86
2023/01/28 01:20:24;;;;;;;0.00;0.00;;;2.00;99.90;;;;;;5034045;28;20075;-86
2023/01/28 01:22:50;;;;;;;0.20;0.20;;;2.40;99.90;;;;;;5035464;28;20034;-86
2023/01/28 01:25:17;;;;;;;0.77;0.77;;;1.50;99.90;;;;;;5035500;28;20048;-87
2023/01/28 01:27:46;;;;;;;0.00;0.00;;;1.50;1.00;;;;;;5035189;28;20037;-87
2023/01/28 01:30:13;;;;;;;0.20;0.20;;;1.50;99.90;;;;;;5035214;28;20058;-86
2023/01/28 01:32:38;;;;;;;0.33;0.33;;;1.50;1.00;;;;;;5017746;28;20450;-86
2023/01/28 01:35:07;;;;;;;0.75;0.73;;;2.30;99.90;;;;;;5034548;28;20041;-87
2023/01/28 01:37:33;;;;;;;0.00;0.00;;;1.50;99.90;;;;;;5035262;28;20057;-86
2023/01/28 01:40:01;;;;;;;0.63;0.63;;;2.50;99.90;;;;;;5035210;28;20076;-86
2023/01/28 01:42:27;;;;;;;0.45;0.30;;;1.40;1.00;;;;;;5034866;28;20121;-86
2023/01/28 01:45:01;;;;;;;0.13;0.13;;;1.40;1.00;;;;;;5033666;28;20439;-86
2023/01/28 01:47:41;;;;;;;0.20;0.20;;;2.40;99.90;;;;;;5033744;28;20050;-87
2023/01/28 01:50:31;;;;;;;0.10;0.10;;;1.40;99.90;;;;;;5034887;28;20128;-87
2023/01/28 01:53:11;;;;;;;1.48;1.00;;;2.30;63.90;;;;;;5034355;28;20458;-87
2023/01/28 01:55:40;;;;;;;0.30;0.30;;;1.40;99.90;;;;;;5034309;28;20059;-87
2023/01/28 01:58:09;;;;;;;0.10;0.10;;;1.40;99.90;;;;;;5035232;28;20045;-87
2023/01/28 02:00:35;;;;;;;0.40;0.40;;;1.40;1.00;;;;;;5034959;28;20045;-86
2023/01/28 02:03:00;;;;;;;0.10;0.10;;;1.40;1.00;;;;;;5034018;28;20411;-86
2023/01/28 02:05:26;;;;;;;0.00;0.00;;;1.40;99.90;;;;;;5035100;28;20136;-86
2023/01/28 02:08:19;;;;;;;0.40;0.40;;;1.40;1.00;;;;;;5035261;28;20042;-87
2023/01/28 02:10:41;;;;;;;0.00;0.00;;;1.40;1.00;;;;;;5034881;28;20049;-86
2023/01/28 02:13:07;;;;;;;0.30;0.30;;;1.40;34.70;;;;;;5034755;28;20045;-86
2023/01/28 02:15:33;;;;;;;0.10;0.10;;;1.40;99.90;;;;;;5036676;28;20057;-87
2023/01/28 02:17:59;;;;;;;0.15;0.15;;;1.40;99.90;;;;;;5038938;28;20426;-86
2023/01/28 02:20:39;;;;;;;0.00;0.00;;;1.40;99.90;;;;;;5038839;28;20502;-86
2023/01/28 02:23:43;;;;;;;0.00;0.00;;;1.40;55.40;;;;;;5038706;28;20187;-86
2023/01/28 02:26:46;;;;;;;0.23;0.23;;;1.40;1.00;;;;;;5038797;28;20045;-86
2023/01/28 02:29:32;;;;;;;0.20;0.20;;;1.50;99.90;;;;;;5037310;28;20429;-86
2023/01/28 02:32:13;;;;;;;0.00;0.00;;;1.50;99.90;;;;;;5038531;28;20052;-87
2023/01/28 02:34:45;;;;;;;0.73;0.73;;;1.50;1.00;;;;;;5038717;28;20080;-87
2023/01/28 02:37:28;;;;;;;0.03;0.03;;;1.40;99.90;;;;;;5038682;28;20069;-86
2023/01/28 02:39:59;;;;;;;0.55;0.32;;;1.40;99.90;;;;;;5038684;28;20041;-86
2023/01/28 02:42:31;;;;;;;0.00;0.00;;;1.40;50.50;;;;;;5038454;28;20037;-86
2023/01/28 02:44:57;;;;;;;0.00;0.00;;;1.40;1.00;;;;;;5038782;28;20065;-87
2023/01/28 02:50:13;;;;;;;0.00;0.00;;;1.40;99.90;;;;;;5037576;28;20045;-85
2023/01/28 02:55:40;;;;;;;0.75;0.75;;;1.40;1.00;;;;;;5039253;28;20056;-86
2023/01/28 02:58:22;;;;;;;0.00;0.00;;;1.40;99.90;;;;;;5037420;28;20075;-86
2023/01/28 03:01:16;;;;;;;0.15;0.10;;;1.40;99.90;;;;;;5038341;28;20102;-87
2023/01/28 03:04:09;;;;;;;0.20;0.20;;;1.40;99.90;;;;;;5038127;28;20116;-86
2023/01/28 03:06:40;;;;;;;0.28;0.28;;;1.40;65.70;;;;;;5043054;28;20053;-88
2023/01/28 03:09:21;;;;;;;0.30;0.30;;;1.40;99.90;;;;;;5052094;28;20049;-86
2023/01/28 03:37:30;;;;;;;0.00;0.00;;;1.30;99.90;;;;;;5052265;28;20053;-86
2023/01/28 03:40:01;;;;;;;0.00;0.00;;;1.30;99.90;;;;;;5052528;28;20049;-86
2023/01/28 03:42:26;;;;;;;0.38;0.38;;;1.30;94.70;;;;;;5053114;28;20060;-86
2023/01/28 03:44:52;;;;;;;0.03;0.03;;;1.30;99.90;;;;;;5051794;28;20476;-86
2023/01/28 03:47:29;;;;;;;0.10;0.10;;;1.30;99.90;;;;;;5051916;28;20061;-86
2023/01/28 03:49:58;;;;;;;0.00;0.00;;;1.30;99.90;;;;;;5052033;28;20077;-86
2023/01/28 03:52:26;;;;;;;0.23;0.23;;;1.30;1.00;;;;;;5050604;28;20048;-86
2023/01/28 03:54:52;;;;;;;0.90;0.65;;;1.30;99.90;;;;;;5051157;28;20026;-86
2023/01/28 03:57:24;;;;;;;0.35;0.32;;;1.30;99.90;;;;;;5051746;28;20103;-86
2023/01/28 03:59:51;;;;;;;0.00;0.00;;;1.30;99.90;;;;;;5052934;28;20065;-86
2023/01/28 04:02:18;;;;;;;0.47;0.30;;;1.30;99.90;;;;;;5048745;28;20045;-86
2023/01/28 04:04:44;;;;;;;0.20;0.20;;;1.30;99.90;;;;;;5039897;28;20530;-86
2023/01/28 04:07:13;;;;;;;0.00;0.00;;;1.20;99.90;;;;;;5038892;28;20053;-86
2023/01/28 04:09:39;;;;;;;0.20;0.20;;;1.20;99.90;;;;;;5039121;28;20403;-86
2023/01/28 04:12:05;;;;;;;0.00;0.00;;;1.20;1.00;;;;;;5038003;28;20052;-86
2023/01/28 04:14:31;;;;;;;1.63;1.52;;;1.20;1.00;;;;;;5043839;28;20049;-87
2023/01/28 04:16:57;;;;;;;0.00;0.00;;;1.20;20.50;;;;;;5041157;28;20103;-87
2023/01/28 04:19:23;;;;;;;0.00;0.00;;;1.20;9.80;;;;;;5039937;28;20042;-86
2023/01/28 04:21:49;;;;;;;0.10;0.10;;;1.20;24.20;;;;;;5046598;28;20430;-86
2023/01/28 04:24:15;;;;;;;0.20;0.20;;;1.20;52.40;;;;;;5048757;28;20047;-86
2023/01/28 04:26:41;;;;;;;0.10;0.10;;;1.20;99.90;;;;;;5052104;28;20041;-86
2023/01/28 04:29:09;;;;;;;0.20;0.20;;;1.30;99.90;;;;;;5050140;28;20053;-86
2023/01/28 04:31:35;;;;;;;0.10;0.10;;;1.30;11.30;;;;;;5050775;28;20041;-86
2023/01/28 04:34:01;;;;;;;0.08;0.08;;;1.30;1.00;;;;;;5050462;28;20038;-86
2023/01/28 04:36:27;;;;;;;1.90;1.00;;;1.30;1.00;;;;;;5050052;28;20080;-86
2023/01/28 04:38:52;;;;;;;0.08;0.08;;;1.30;99.90;;;;;;5049563;28;20037;-86
2023/01/28 04:41:18;;;;;;;0.03;0.03;;;1.30;99.90;;;;;;5050510;28;20048;-86
2023/01/28 04:43:44;;;;;;;0.22;0.20;;;1.30;1.00;;;;;;5051247;28;20105;-86
2023/01/28 04:46:10;;;;;;;0.05;0.05;;;1.20;1.00;;;;;;5050141;28;20055;-86
2023/01/28 04:48:35;;;;;;;0.52;0.30;;;1.20;1.00;;;;;;5049501;28;20053;-86
2023/01/28 04:51:03;;;;;;;0.30;0.30;;;1.30;1.00;;;;;;5049641;28;20129;-86
2023/01/28 04:53:29;;;;;;;0.10;0.10;;;1.30;99.90;;;;;;5050903;28;20092;-86
2023/01/28 04:55:56;;;;;;;0.13;0.13;;;1.20;1.00;;;;;;5050458;28;20050;-86
2023/01/28 04:58:21;;;;;;;0.00;0.00;;;1.20;1.00;;;;;;5049709;28;20040;-86
2023/01/28 05:00:54;;;;;;;0.55;0.55;;;1.20;1.00;;;;;;5050147;28;20045;-86
2023/01/28 05:03:20;;;;;;;0.00;0.00;;;1.20;34.20;;;;;;5050011;28;20071;-86
2023/01/28 05:05:45;;;;;;;0.65;0.43;;;1.10;97.80;;;;;;5049445;28;20061;-86
2023/01/28 05:08:11;;;;;;;0.10;0.10;;;1.20;99.90;;;;;;5049477;28;20041;-86
2023/01/28 05:10:38;;;;;;;1.45;0.90;;;1.10;99.90;;;;;;5048166;28;20065;-86
2023/01/28 05:13:04;;;;;;;0.20;0.20;;;1.10;99.90;;;;;;5048936;28;20049;-86
2023/01/28 05:15:30;;;;;;;0.05;0.05;;;1.20;99.90;;;;;;5048796;28;20049;-86
2023/01/28 05:17:56;;;;;;;0.03;0.03;;;1.20;99.90;;;;;;5048896;28;20045;-86
2023/01/28 05:20:21;;;;;;;0.08;0.08;;;1.20;99.90;;;;;;5049824;28;20055;-86
2023/01/28 05:22:47;;;;;;;0.10;0.10;;;1.20;99.90;;;;;;5048689;28;20046;-86
2023/01/28 05:25:13;;;;;;;0.28;0.22;;;1.20;99.90;;;;;;5048357;28;20068;-86
2023/01/28 05:27:38;;;;;;;0.20;0.20;;;1.20;99.90;;;;;;5048126;28;20068;-86
2023/01/28 05:30:05;;;;;;;1.80;0.73;;;1.20;99.90;;;;;;5047902;28;20056;-86
2023/01/28 05:32:31;;;;;;;0.30;0.30;;;1.20;99.90;;;;;;5049844;28;20068;-86
2023/01/28 05:34:56;;;;;;;3.65;1.65;;;1.20;94.90;;;;;;5048794;28;20042;-86
2023/01/28 05:37:22;;;;;;;0.63;0.50;;;1.20;1.00;;;;;;5050207;28;20097;-86
2023/01/28 05:39:48;;;;;;;0.00;0.00;;;1.20;1.00;;;;;;5049911;28;20093;-86
2023/01/28 05:42:14;;;;;;;0.30;0.30;;;1.10;16.30;;;;;;5047970;28;20041;-86
2023/01/28 05:44:40;;;;;;;0.82;0.25;;;1.10;99.90;;;;;;5048908;28;20079;-86
2023/01/28 05:47:06;;;;;;;0.10;0.10;;;1.10;63.50;;;;;;5046775;28;20057;-86
2023/01/28 05:49:31;;;;;;;4.40;1.63;;;1.10;87.60;;;;;;5040514;28;20049;-87
2023/01/28 05:51:57;;;;;;;0.30;0.30;;;1.10;87.70;;;;;;5035287;28;20397;-86
2023/01/28 05:54:22;;;;;;;0.25;0.25;;;1.20;55.00;;;;;;5033847;28;20050;-86
2023/01/28 05:56:48;;;;;;;0.13;0.13;;;1.10;72.50;;;;;;5033754;28;20054;-86
2023/01/28 05:59:14;;;;;;;0.00;0.00;;;1.10;81.00;;;;;;5035086;28;20084;-86
2023/01/28 06:01:40;;;;;;;0.10;0.10;;;1.20;36.70;;;;;;5034874;28;20124;-86
2023/01/28 06:04:06;;;;;;;0.43;0.43;;;1.10;1.00;;;;;;5035131;28;20505;-87
2023/01/28 06:06:31;;;;;;;0.00;0.00;;;1.10;1.00;;;;;;5034704;28;20073;-86
2023/01/28 06:08:57;;;;;;;0.00;0.00;;;1.20;1.00;;;;;;5035272;28;20045;-87
2023/01/28 06:11:22;;;;;;;1.55;0.73;;;1.20;1.00;;;;;;5034362;28;20064;-87
2023/01/28 06:13:48;;;;;;;0.10;0.10;;;1.20;20.80;;;;;;5033419;28;20045;-86
2023/01/28 06:16:14;;;;;;;0.10;0.10;;;1.10;4.80;;;;;;5033430;28;20037;-87
2023/01/28 06:18:43;;;;;;;1.75;0.90;;;1.20;5.40;;;;;;5035087;28;20087;-86
2023/01/28 06:21:09;;;;;;;0.05;0.05;;;1.20;1.00;;;;;;5035318;28;20042;-87
2023/01/28 06:23:34;;;;;;;0.47;0.47;;;1.20;1.00;;;;;;5034518;28;20055;-86
2023/01/28 06:26:00;;;;;;;0.40;0.40;;;1.20;1.00;;;;;;5035264;28;20499;-85
2023/01/28 06:28:25;;;;;;;0.17;0.17;;;1.20;1.00;;;;;;5034263;28;20034;-87
2023/01/28 06:30:51;;;;;;;0.20;0.20;;;1.20;1.00;;;;;;5035272;28;20049;-86
2023/01/28 06:33:21;;;;;;;0.00;0.00;;;1.20;1.00;;;;;;5034278;28;20466;-87
2023/01/28 06:35:47;;;;;;;0.00;0.00;;;1.20;1.00;;;;;;5035950;28;20099;-87
2023/01/28 06:38:13;;;;;;;0.75;0.65;;;1.20;1.00;;;;;;5034764;28;20129;-86
2023/01/28 06:40:39;;;;;;;0.57;0.55;;;1.20;1.00;;;;;;5035554;28;20073;-87
2023/01/28 06:43:05;;;;;;;0.10;0.10;;;1.20;1.00;;;;;;5035001;28;20072;-86
2023/01/28 06:45:32;;;;;;;0.10;0.10;;;1.20;99.90;;;;;;5034617;28;20052;-86
2023/01/28 06:47:57;;;;;;;2.17;0.95;;;1.20;99.90;;;;;;5033116;28;20054;-86
2023/01/28 06:50:23;;;;;;;0.20;0.20;;;1.20;99.90;;;;;;5034095;28;20050;-86
2023/01/28 06:52:48;;;;;;;0.10;0.10;;;1.20;1.00;;;;;;5032743;28;20377;-86
2023/01/28 06:55:14;;;;;;;0.50;0.50;;;1.20;1.00;;;;;;5034271;28;20038;-86
2023/01/28 06:57:41;;;;;;;0.30;0.30;;;1.20;1.00;;;;;;5033847;28;20432;-86
2023/01/28 07:00:09;;;;;;;0.30;0.30;;;1.20;8.50;;;;;;5033928;28;20044;-86
2023/01/28 07:02:36;;;;;;;0.10;0.10;;;1.10;84.70;;;;;;5036107;28;20465;-86
2023/01/28 07:05:02;;;;;;;0.08;0.08;;;1.10;99.90;;;;;;5037576;28;20041;-86
2023/01/28 07:07:28;;;;;;;1.95;0.47;;;1.10;84.80;;;;;;5037896;28;20046;-86
2023/01/28 07:09:54;;;;;;;0.00;0.00;;;1.10;99.90;;;;;;5036774;28;20446;-86
2023/01/28 07:12:19;;;;;;;1.75;1.30;;;1.10;99.90;;;;;;5036749;28;20403;-87
2023/01/28 07:14:45;;;;;;;0.75;0.75;;;1.10;99.90;;;;;;5036248;28;20092;-86
2023/01/28 07:17:10;;;;;;;0.20;0.20;;;1.10;99.90;;;;;;5035825;28;20047;-86
2023/01/28 07:19:36;;;;;;;0.10;0.10;;;1.10;99.90;;;;;;5036455;28;20045;-85
2023/01/28 07:22:02;;;;;;;0.88;0.88;;;1.10;99.90;;;;;;5034527;28;20129;-86
2023/01/28 07:24:28;;;;;;;1.23;1.15;;;1.10;99.90;;;;;;5051292;28;20052;-86
2023/01/28 07:26:54;;;;;;;0.52;0.45;;;1.00;99.90;;;;;;5035708;28;20468;-86
2023/01/28 07:29:20;;;;;;;1.08;0.75;;;0.90;93.00;;;;;;5035656;28;20077;-86
2023/01/28 07:31:45;;;;;;;0.43;0.43;;;0.70;99.90;;;;;;5035386;28;20045;-86
2023/01/28 07:34:11;;;;;;;0.43;0.43;;;0.50;99.90;;;;;;5035438;28;20517;-86
2023/01/28 07:36:37;;;;;;;0.20;0.20;;;0.30;1.00;;;;;;5035251;28;20041;-86
2023/01/28 07:39:03;;;;;;;0.30;0.30;;;0.10;1.00;;;;;;5035378;28;20487;-86
2023/01/28 07:41:29;;;;;;;0.25;0.25;;;-0.20;1.00;;;;;;5035547;28;20122;-86
2023/01/28 07:43:54;;;;;;;0.00;0.00;;;-0.30;1.00;;;;;;5035208;28;20490;-86
2023/01/28 07:46:20;;;;;;;0.00;0.00;;;-0.50;16.30;;;;;;5035593;28;20033;-86
2023/01/28 07:48:46;;;;;;;0.08;0.08;;;-0.60;75.00;;;;;;5035536;28;20054;-86
2023/01/28 07:51:12;;;;;;;0.50;0.50;;;-0.70;99.90;;;;;;5034112;28;20054;-86
2023/01/28 07:53:38;;;;;;;0.10;0.10;;;-0.80;99.90;;;;;;5033915;28;20054;-86
2023/01/28 07:56:05;;;;;;;0.20;0.20;;;-0.80;99.90;;;;;;5035205;28;20048;-87
2023/01/28 07:58:33;;;;;;;0.30;0.30;;;-0.80;99.90;;;;;;5035098;28;20388;-86
2023/01/28 08:00:59;;;;;;;0.10;0.10;;;-0.80;99.90;;;;;;5034976;28;20049;-86
2023/01/28 08:03:26;;;;;;;0.00;0.00;;;-0.80;99.90;;;;;;5035288;28;20107;-86
2023/01/28 08:05:53;;;;;;;0.47;0.47;;;-0.80;99.90;;;;;;5034745;28;20074;-86
2023/01/28 08:08:19;;;;;;;0.97;0.87;;;-0.80;99.90;;;;;;5033546;28;20056;-86
2023/01/28 08:10:45;;;;;;;0.07;0.07;;;-0.70;99.90;;;;;;5034902;28;20395;-86
2023/01/28 08:13:12;;;;;;;0.40;0.40;;;-0.70;99.90;;;;;;5034917;28;20034;-86
2023/01/28 08:15:39;;;;;;;0.80;0.80;;;-0.80;99.90;;;;;;5034938;28;20041;-86
2023/01/28 08:18:06;;;;;;;0.17;0.17;;;-0.70;99.90;;;;;;5034530;28;20081;-86
2023/01/28 08:20:31;;;;;;;0.00;0.00;;;-0.70;99.90;;;;;;5034740;28;20041;-86
2023/01/28 08:23:08;;;;;;;0.10;0.10;;;-0.60;99.90;;;;;;5033375;28;20518;-86
2023/01/28 08:25:34;;;;;;;0.40;0.40;;;-0.60;99.90;;;;;;5034710;28;20053;-86
2023/01/28 08:28:01;;;;;;;0.85;0.85;;;-0.60;99.90;;;;;;5034592;28;20119;-86
2023/01/28 08:30:26;;;;;;;0.35;0.35;;;-0.60;99.90;;;;;;5034298;28;20117;-86
2023/01/28 08:32:56;;;;;;;0.10;0.10;;;-0.60;99.90;;;;;;5032991;28;20179;-86
2023/01/28 08:35:21;;;;;;;0.00;0.00;;;-0.60;99.90;;;;;;5034377;28;20042;-86
2023/01/28 08:37:47;;;;;;;1.60;0.43;;;-0.60;99.90;;;;;;5033305;28;20046;-86
2023/01/28 08:40:12;;;;;;;0.30;0.30;;;-0.60;99.90;;;;;;5034262;28;20457;-86
2023/01/28 08:42:38;;;;;;;0.40;0.40;;;-0.50;99.90;;;;;;5034218;28;20046;-86
2023/01/28 08:45:04;;;;;;;0.00;0.00;;;-0.40;99.90;;;;;;5033044;28;20052;-87
2023/01/28 08:47:30;;;;;;;0.10;0.10;;;-0.30;99.90;;;;;;5033806;28;20108;-86
2023/01/28 08:49:55;;;;;;;0.10;0.10;;;-0.20;99.90;;;;;;5034211;28;20049;-86
2023/01/28 08:52:21;;;;;;;0.45;0.45;;;-0.10;99.90;;;;;;5034047;28;20048;-86
2023/01/28 08:54:46;;;;;;;0.10;0.10;;;0.00;99.90;;;;;;5033175;28;20049;-86
2023/01/28 08:57:12;;;;;;;0.53;0.53;;;0.20;99.90;;;;;;5034093;28;20120;-86
2023/01/28 08:59:43;;;;;;;0.00;0.00;;;0.60;99.90;;;;;;5049609;28;20124;-86
2023/01/28 09:02:12;;;;;;;0.57;0.50;;;0.90;99.90;;;;;;5033755;28;20555;-86
2023/01/28 09:04:37;;;;;;;0.30;0.30;;;1.10;99.90;;;;;;5033891;28;20052;-86
2023/01/28 09:07:03;;;;;;;0.08;0.08;;;1.20;21.00;;;;;;5032548;28;20045;-86
2023/01/28 09:09:30;;;;;;;2.80;0.73;;;1.30;99.90;;;;;;5033780;28;20145;-86
2023/01/28 09:11:55;;;;;;;0.50;0.50;;;1.30;99.90;;;;;;5033779;28;20064;-86
2023/01/28 09:14:21;;;;;;;0.55;0.55;;;1.20;99.90;;;;;;5032417;28;20543;-86
2023/01/28 09:16:46;;;;;;;0.47;0.47;;;1.20;99.90;;;;;;5032242;28;20072;-86
2023/01/28 09:19:12;;;;;;;1.97;0.93;;;1.10;1.00;;;;;;5033673;28;20045;-86
2023/01/28 09:21:39;;;;;;;0.00;0.00;;;1.10;99.90;;;;;;5033659;28;20052;-86
2023/01/28 09:24:05;;;;;;;0.00;0.00;;;1.10;99.90;;;;;;5032903;28;20041;-86
2023/01/28 09:26:33;;;;;;;0.47;0.45;;;1.00;99.90;;;;;;5033289;28;20050;-86
2023/01/28 09:28:58;;;;;;;0.30;0.30;;;1.10;99.90;;;;;;5031898;28;20045;-86
2023/01/28 09:31:24;;;;;;;0.38;0.38;;;1.10;99.90;;;;;;5031956;28;20038;-86
2023/01/28 09:33:55;;;;;;;0.35;0.35;;;1.20;99.90;;;;;;5033116;28;20033;-86
2023/01/28 09:36:21;;;;;;;0.10;0.10;;;1.20;99.90;;;;;;5033294;28;20449;-86
2023/01/28 09:38:46;;;;;;;1.70;1.20;;;1.30;99.90;;;;;;5033147;28;20045;-86
2023/01/28 09:41:28;;;;;;;0.10;0.10;;;1.30;1.00;;;;;;5033159;28;20042;-86
2023/01/28 09:44:48;;;;;;;0.03;0.03;;;1.50;1.00;;;;;;5033582;28;20068;-86
2023/01/28 09:47:34;;;;;;;0.08;0.08;;;1.70;99.90;;;;;;5024574;28;20124;-87
2023/01/28 09:50:05;;;;;;;0.63;0.63;;;2.00;99.90;;;;;;5032904;28;20049;-87
2023/01/28 09:52:35;;;;;;;0.20;0.20;;;2.30;99.90;;;;;;5033296;28;20045;-87
2023/01/28 09:55:31;;;;;;;0.10;0.10;;;2.70;58.70;;;;;;5031781;28;20081;-87
2023/01/28 09:57:57;;;;;;;0.52;0.52;;;2.90;99.90;;;;;;5032547;28;20049;-87
2023/01/28 10:00:42;;;;;;;0.00;0.00;;;3.20;99.90;;;;;;5032852;28;20148;-87
2023/01/28 10:03:35;;;;;;;0.40;0.40;;;3.60;32.80;;;;;;5033283;28;20048;-86
2023/01/28 10:06:19;;;;;;;0.00;0.00;;;3.80;99.90;;;;;;5033180;28;20171;-87
2023/01/28 10:09:11;;;;;;;0.00;0.00;;;3.90;99.90;;;;;;5032732;28;20076;-87
2023/01/28 10:12:14;;;;;;;0.10;0.10;;;3.90;99.90;;;;;;5033081;28;20042;-86
2023/01/28 10:14:57;;;;;;;0.17;0.17;;;4.00;96.30;;;;;;5032680;28;20045;-86
2023/01/28 10:17:33;;;;;;;0.20;0.20;;;4.10;99.90;;;;;;5032656;28;20518;-87
2023/01/28 10:20:31;;;;;;;0.10;0.10;;;4.30;1.00;;;;;;5033288;28;20046;-86
2023/01/28 10:23:26;;;;;;;0.15;0.15;;;4.30;1.00;;;;;;5035840;28;20057;-86
2023/01/28 10:25:53;;;;;;;0.00;0.00;;;4.30;99.90;;;;;;5037066;28;20041;-86
2023/01/28 10:28:25;;;;;;;0.75;0.68;;;4.30;1.00;;;;;;5037854;28;20065;-87
2023/01/28 10:30:51;;;;;;;0.32;0.32;;;4.20;1.00;;;;;;5036967;28;20053;-86
2023/01/28 10:33:17;;;;;;;0.03;0.03;;;4.20;12.60;;;;;;5036454;28;20042;-87
2023/01/28 10:35:43;;;;;;;0.00;0.00;;;4.00;1.00;;;;;;5032755;28;20053;-86
2023/01/28 10:38:23;;;;;;;0.22;0.22;;;3.80;1.00;;;;;;5035761;28;20045;-86
2023/01/28 10:40:49;;;;;;;0.43;0.43;;;3.60;71.40;;;;;;5035515;28;20046;-87
2023/01/28 10:43:18;;;;;;;0.10;0.10;;;3.50;99.90;;;;;;5036428;28;20208;-86
2023/01/28 10:46:15;;;;;;;0.00;0.00;;;3.30;99.90;;;;;;5036982;28;20452;-86
2023/01/28 10:48:58;;;;;;;0.38;0.38;;;3.30;99.90;;;;;;5034959;28;20092;-86
2023/01/28 10:51:39;;;;;;;0.13;0.13;;;3.30;99.90;;;;;;5035372;28;20413;-87
2023/01/28 10:54:23;;;;;;;0.10;0.10;;;3.30;99.90;;;;;;5034734;28;20076;-87
2023/01/28 10:56:53;;;;;;;0.00;0.00;;;3.30;99.90;;;;;;5036705;28;20407;-86
2023/01/28 10:59:22;;;;;;;0.55;0.55;;;3.30;99.90;;;;;;5036472;28;20434;-86
2023/01/28 11:01:51;;;;;;;0.13;0.13;;;4.40;99.90;;;;;;5036321;28;20466;-86
2023/01/28 11:04:23;;;;;;;0.30;0.30;;;3.60;99.90;;;;;;5035956;28;20411;-86
2023/01/28 11:06:54;;;;;;;0.50;0.50;;;3.70;99.90;;;;;;5035673;28;20423;-86
2023/01/28 11:09:26;;;;;;;2.17;0.75;;;3.90;99.90;;;;;;5034630;28;20050;-86
2023/01/28 11:11:52;;;;;;;0.30;0.28;;;4.10;99.90;;;;;;5035813;28;20483;-87
2023/01/28 11:14:23;;;;;;;0.35;0.32;;;4.30;99.90;;;;;;5036035;28;20041;-87
2023/01/28 11:16:51;;;;;;;0.47;0.47;;;4.70;1.00;;;;;;5034460;28;20045;-86
2023/01/28 11:19:19;;;;;;;0.45;0.45;;;5.00;1.00;;;;;;5035627;28;20513;-87
2023/01/28 11:21:52;;;;;;;0.20;0.20;;;5.30;99.90;;;;;;5035579;28;20038;-86
2023/01/28 11:24:31;;;;;;;0.45;0.35;;;5.60;99.90;;;;;;5036050;28;20074;-86
2023/01/28 11:26:58;;;;;;;0.63;0.20;;;5.80;99.90;;;;;;5035896;28;20052;-87
2023/01/28 11:29:30;;;;;;;1.23;0.68;;;7.00;99.90;;;;;;5036061;28;20095;-87
2023/01/28 11:31:58;;;;;;;0.32;0.32;;;5.90;99.90;;;;;;5035225;28;20503;-86
2023/01/28 11:34:29;;;;;;;0.22;0.22;;;5.90;99.90;;;;;;5035728;28;20491;-86
2023/01/28 11:37:02;;;;;;;0.75;0.28;;;5.90;99.90;;;;;;5035790;28;20073;-87
2023/01/28 11:39:28;;;;;;;0.08;0.08;;;5.90;99.90;;;;;;5036043;28;20503;-87
2023/01/28 11:42:09;;;;;;;0.75;0.50;;;6.00;99.90;;;;;;5034739;28;20072;-87
2023/01/28 11:44:34;;;;;;;0.20;0.20;;;6.90;99.90;;;;;;5034216;28;20045;-86
2023/01/28 11:47:15;;;;;;;1.58;1.15;;;6.20;99.90;;;;;;5034953;28;20092;-87
2023/01/28 11:50:09;;;;;;;1.42;1.33;;;6.30;99.90;;;;;;5035549;28;20045;-86
2023/01/28 11:52:58;;;;;;;0.00;0.00;;;6.40;99.90;;;;;;5035672;28;20055;-86
2023/01/28 11:55:49;;;;;;;0.15;0.15;;;6.60;99.90;;;;;;5035534;28;20103;-87
2023/01/28 11:58:21;;;;;;;0.00;0.00;;;6.60;99.90;;;;;;5035796;28;20121;-87
2023/01/28 12:01:09;;;;;;;0.55;0.50;;;6.80;99.90;;;;;;5035542;28;20057;-87
2023/01/28 12:04:06;;;;;;;1.45;1.10;;;6.80;99.90;;;;;;5035304;28;20049;-87
2023/01/28 12:06:55;;;;;;;1.38;0.90;;;7.00;99.90;;;;;;5035059;28;20053;-86
2023/01/28 12:09:30;;;;;;;0.88;0.70;;;6.90;97.20;;;;;;5034902;28;20050;-86
2023/01/28 12:12:12;;;;;;;0.22;0.22;;;6.70;99.90;;;;;;5033639;28;20083;-86
2023/01/28 12:14:59;;;;;;;0.08;0.08;;;6.70;78.10;;;;;;5050677;28;20049;-87
2023/01/28 12:17:31;;;;;;;0.32;0.32;;;6.70;99.90;;;;;;5033801;28;20491;-87
2023/01/28 12:20:27;;;;;;;0.47;0.47;;;6.80;99.90;;;;;;5035601;28;20049;-87
2023/01/28 12:22:58;;;;;;;0.10;0.10;;;6.60;99.90;;;;;;5052236;28;20387;-88
2023/01/28 12:25:42;;;;;;;0.20;0.20;;;6.40;99.90;;;;;;5036691;28;20085;-88
2023/01/28 12:28:14;;;;;;;0.52;0.52;;;6.30;85.50;;;;;;5035358;28;20057;-87
2023/01/28 12:31:06;;;;;;;0.50;0.43;;;5.80;42.50;;;;;;5035315;28;20046;-88
2023/01/28 12:34:01;;;;;;;0.30;0.30;;;5.50;99.90;;;;;;5036209;28;20042;-87
2023/01/28 12:36:32;;;;;;;0.00;0.00;;;5.30;99.90;;;;;;5035880;28;20487;-87
2023/01/28 12:39:24;;;;;;;0.65;0.38;;;5.60;99.90;;;;;;5036042;28;20120;-87
2023/01/28 12:41:57;;;;;;;1.55;0.65;;;5.90;99.90;;;;;;5035246;28;20085;-87
2023/01/28 12:44:31;;;;;;;1.17;0.77;;;7.00;99.90;;;;;;5035128;28;20095;-87
2023/01/28 12:47:07;;;;;;;1.23;0.43;;;6.60;99.90;;;;;;5034442;28;20049;-86
2023/01/28 12:49:38;;;;;;;0.00;0.00;;;6.90;89.80;;;;;;5036037;28;20384;-87
2023/01/28 12:52:18;;;;;;;0.38;0.35;;;6.90;40.10;;;;;;5037235;28;20084;-87
2023/01/28 12:55:16;;;;;;;0.10;0.10;;;7.00;99.90;;;;;;5038259;28;20159;-87
2023/01/28 12:57:43;;;;;;;0.38;0.38;;;7.00;95.50;;;;;;5041937;28;20065;-86
2023/01/28 13:00:31;;;;;;;0.52;0.47;;;7.20;99.90;;;;;;5041540;28;20423;-87
2023/01/28 13:03:12;;;;;;;0.20;0.20;;;7.10;73.80;;;;;;5041227;28;20042;-86
2023/01/28 13:05:43;;;;;;;1.55;0.52;;;7.10;41.60;;;;;;5040554;28;20136;-86
2023/01/28 13:08:24;;;;;;;1.20;1.10;;;6.90;76.40;;;;;;5040527;28;20052;-86
2023/01/28 13:10:51;;;;;;;0.10;0.10;;;7.40;31.80;;;;;;5044913;28;20387;-86
2023/01/28 13:13:31;;;;;;;0.30;0.30;;;6.30;75.20;;;;;;5045240;28;20093;-87
2023/01/28 13:15:57;;;;;;;0.10;0.10;;;6.20;99.90;;;;;;5043098;28;20073;-87
2023/01/28 13:18:33;;;;;;;0.45;0.40;;;6.10;99.90;;;;;;5043826;28;20042;-87
2023/01/28 13:21:01;;;;;;;0.00;0.00;;;6.20;99.90;;;;;;5044152;28;20045;-87
2023/01/28 13:23:29;;;;;;;1.23;0.52;;;6.30;99.90;;;;;;5043574;28;20099;-86
2023/01/28 13:25:55;;;;;;;0.10;0.10;;;6.30;99.90;;;;;;5041983;28;20054;-87
2023/01/28 13:28:30;;;;;;;0.43;0.43;;;6.50;99.90;;;;;;5037894;28;20041;-87
2023/01/28 13:31:05;;;;;;;5.57;1.55;;;6.80;99.90;;;;;;5042854;28;20048;-87
2023/01/28 13:33:35;;;;;;;4.00;1.38;;;7.00;99.90;;;;;;5044262;28;20041;-87
2023/01/28 13:36:08;;;;;;;1.33;1.23;;;6.90;93.20;;;;;;5044032;28;20053;-87
2023/01/28 13:38:35;;;;;;;0.45;0.45;;;6.90;99.90;;;;;;5041738;28;20428;-87
2023/01/28 13:41:05;;;;;;;0.47;0.47;;;7.70;96.60;;;;;;5037529;28;20045;-86
2023/01/28 13:43:33;;;;;;;0.90;0.50;;;7.40;45.90;;;;;;5039973;28;20053;-86
2023/01/28 13:46:06;;;;;;;0.45;0.35;;;7.40;1.10;;;;;;5042572;28;20045;-87
2023/01/28 13:48:34;;;;;;;0.40;0.30;;;7.30;1.00;;;;;;5042048;28;20114;-87